sensor_id;sensor_type;location;lat;lon;timestamp;P1;durP1;ratioP1;P2;durP2;ratioP2
13795;SDS011;40911;51.552;9.874;2024-02-04T05:23:36;1.80;;;1.70;;
13795;SDS011;40911;51.552;9.874;2024-02-04T05:25:58;1.80;;;1.70;;
13795;SDS011;40911;51.552;9.874;2024-02-04T05:28:24;2.03;;;1.80;;
13795;SDS011;40911;51.552;9.874;2024-02-04T05:30:45;1.75;;;1.65;;
13795;SDS011;40911;51.552;9.874;2024-02-04T05:33:07;2.22;;;1.80;;
13795;SDS011;40911;51.552;9.874;2024-02-04T05:35:28;1.67;;;1.63;;
13795;SDS011;40911;51.552;9.874;2024-02-04T05:37:51;1.80;;;1.70;;
13795;SDS011;40911;51.552;9.874;2024-02-04T05:40:13;1.90;;;1.80;;
13795;SDS011;40911;51.552;9.874;2024-02-04T05:42:37;1.90;;;1.80;;
13795;SDS011;40911;51.552;9.874;2024-02-04T05:44:58;1.80;;;1.70;;
13795;SDS011;40911;51.552;9.874;2024-02-04T05:47:20;2.10;;;2.00;;
13795;SDS011;40911;51.552;9.874;2024-02-04T05:49:41;2.20;;;1.80;;
13795;SDS011;40911;51.552;9.874;2024-02-04T05:52:03;2.00;;;1.90;;
13795;SDS011;40911;51.552;9.874;2024-02-04T05:54:27;2.15;;;1.90;;
13795;SDS011;40911;51.552;9.874;2024-02-04T05:56:48;1.92;;;1.70;;
13795;SDS011;40911;51.552;9.874;2024-02-04T05:59:10;2.15;;;2.05;;
13795;SDS011;40911;51.552;9.874;2024-02-04T06:01:31;2.42;;;2.22;;
13795;SDS011;40911;51.552;9.874;2024-02-04T06:03:54;2.15;;;2.03;;
13795;SDS011;40911;51.552;9.874;2024-02-04T06:06:15;3.30;;;2.28;;
13795;SDS011;40911;51.552;9.874;2024-02-04T06:08:39;1.95;;;1.85;;
13795;SDS011;40911;51.552;9.874;2024-02-04T06:11:02;2.00;;;1.90;;
13795;SDS011;40911;51.552;9.874;2024-02-04T06:13:24;2.05;;;1.95;;
13795;SDS011;40911;51.552;9.874;2024-02-04T06:15:46;2.67;;;2.47;;
13795;SDS011;40911;51.552;9.874;2024-02-04T06:20:29;5.22;;;3.25;;
13795;SDS011;40911;51.552;9.874;2024-02-04T06:22:50;4.03;;;2.22;;
13795;SDS011;40911;51.552;9.874;2024-02-04T06:25:12;2.60;;;2.40;;
13795;SDS011;40911;51.552;9.874;2024-02-04T06:29:57;2.55;;;2.35;;
13795;SDS011;40911;51.552;9.874;2024-02-04T06:32:18;2.70;;;2.50;;
13795;SDS011;40911;51.552;9.874;2024-02-04T06:34:40;2.97;;;2.67;;
13795;SDS011;40911;51.552;9.874;2024-02-04T06:37:02;4.65;;;2.92;;
13795;SDS011;40911;51.552;9.874;2024-02-04T06:39:24;2.70;;;2.50;;
13795;SDS011;40911;51.552;9.874;2024-02-04T06:44:10;2.55;;;2.35;;
13795;SDS011;40911;51.552;9.874;2024-02-04T06:46:32;2.78;;;2.50;;
13795;SDS011;40911;51.552;9.874;2024-02-04T06:48:54;3.70;;;3.03;;
13795;SDS011;40911;51.552;9.874;2024-02-04T06:51:16;3.40;;;3.10;;
13795;SDS011;40911;51.552;9.874;2024-02-04T06:53:37;5.05;;;3.63;;
13795;SDS011;40911;51.552;9.874;2024-02-04T06:55:59;4.90;;;3.75;;
13795;SDS011;40911;51.552;9.874;2024-02-04T06:58:20;5.78;;;4.25;;
13795;SDS011;40911;51.552;9.874;2024-02-04T07:03:07;5.45;;;4.85;;
13795;SDS011;40911;51.552;9.874;2024-02-04T07:05:29;5.82;;;4.82;;
13795;SDS011;40911;51.552;9.874;2024-02-04T07:07:53;5.72;;;4.68;;
13795;SDS011;40911;51.552;9.874;2024-02-04T07:12:37;7.93;;;4.85;;
13795;SDS011;40911;51.552;9.874;2024-02-04T07:14:59;8.07;;;5.40;;
13795;SDS011;40911;51.552;9.874;2024-02-04T07:17:22;6.63;;;5.30;;
13795;SDS011;40911;51.552;9.874;2024-02-04T07:19:45;8.05;;;5.63;;
13795;SDS011;40911;51.552;9.874;2024-02-04T07:22:06;6.50;;;5.45;;
13795;SDS011;40911;51.552;9.874;2024-02-04T07:24:28;8.48;;;6.07;;
13795;SDS011;40911;51.552;9.874;2024-02-04T07:26:50;7.68;;;5.75;;
13795;SDS011;40911;51.552;9.874;2024-02-04T07:29:12;8.55;;;6.70;;
13795;SDS011;40911;51.552;9.874;2024-02-04T07:31:33;9.30;;;6.57;;
13795;SDS011;40911;51.552;9.874;2024-02-04T07:33:59;8.57;;;6.50;;
13795;SDS011;40911;51.552;9.874;2024-02-04T07:36:20;9.10;;;7.35;;
13795;SDS011;40911;51.552;9.874;2024-02-04T07:38:42;12.48;;;7.47;;
13795;SDS011;40911;51.552;9.874;2024-02-04T07:41:04;12.38;;;7.15;;
13795;SDS011;40911;51.552;9.874;2024-02-04T07:43:26;12.55;;;7.25;;
13795;SDS011;40911;51.552;9.874;2024-02-04T07:45:48;10.85;;;7.80;;
13795;SDS011;40911;51.552;9.874;2024-02-04T07:48:09;13.07;;;7.57;;
13795;SDS011;40911;51.552;9.874;2024-02-04T07:50:33;10.38;;;6.88;;
13795;SDS011;40911;51.552;9.874;2024-02-04T07:52:54;9.82;;;6.85;;
13795;SDS011;40911;51.552;9.874;2024-02-04T07:57:37;9.02;;;6.32;;
13795;SDS011;40911;51.552;9.874;2024-02-04T07:59:59;7.68;;;5.72;;
13795;SDS011;40911;51.552;9.874;2024-02-04T08:02:23;9.02;;;5.93;;
13795;SDS011;40911;51.552;9.874;2024-02-04T08:04:45;8.35;;;5.55;;
13795;SDS011;40911;51.552;9.874;2024-02-04T08:07:08;7.80;;;5.15;;
13795;SDS011;40911;51.552;9.874;2024-02-04T08:09:30;8.23;;;5.35;;
13795;SDS011;40911;51.552;9.874;2024-02-04T08:11:51;8.43;;;6.00;;
13795;SDS011;40911;51.552;9.874;2024-02-04T08:16:35;8.93;;;6.47;;
13795;SDS011;40911;51.552;9.874;2024-02-04T08:18:57;10.93;;;6.50;;
13795;SDS011;40911;51.552;9.874;2024-02-04T08:21:18;11.90;;;6.90;;
13795;SDS011;40911;51.552;9.874;2024-02-04T08:26:04;9.73;;;6.63;;
13795;SDS011;40911;51.552;9.874;2024-02-04T08:28:26;9.23;;;6.93;;
13795;SDS011;40911;51.552;9.874;2024-02-04T08:30:47;12.50;;;7.28;;
13795;SDS011;40911;51.552;9.874;2024-02-04T08:33:09;11.20;;;8.38;;
13795;SDS011;40911;51.552;9.874;2024-02-04T08:35:31;12.48;;;8.75;;
13795;SDS011;40911;51.552;9.874;2024-02-04T08:37:52;11.65;;;7.25;;
13795;SDS011;40911;51.552;9.874;2024-02-04T08:40:15;11.55;;;7.43;;
13795;SDS011;40911;51.552;9.874;2024-02-04T08:42:37;9.35;;;7.03;;
13795;SDS011;40911;51.552;9.874;2024-02-04T08:44:58;11.95;;;7.75;;
13795;SDS011;40911;51.552;9.874;2024-02-04T08:47:20;9.35;;;6.63;;
13795;SDS011;40911;51.552;9.874;2024-02-04T08:52:03;8.65;;;7.18;;
13795;SDS011;40911;51.552;9.874;2024-02-04T08:54:25;10.82;;;7.22;;
13795;SDS011;40911;51.552;9.874;2024-02-04T08:56:48;10.95;;;6.85;;
13795;SDS011;40911;51.552;9.874;2024-02-04T08:59:10;10.20;;;8.15;;
13795;SDS011;40911;51.552;9.874;2024-02-04T09:01:32;11.27;;;7.60;;
13795;SDS011;40911;51.552;9.874;2024-02-04T09:06:15;10.32;;;6.97;;
13795;SDS011;40911;51.552;9.874;2024-02-04T09:08:36;12.10;;;7.47;;
13795;SDS011;40911;51.552;9.874;2024-02-04T09:10:58;9.07;;;6.80;;
13795;SDS011;40911;51.552;9.874;2024-02-04T09:15:42;7.25;;;5.40;;
13795;SDS011;40911;51.552;9.874;2024-02-04T09:18:04;7.88;;;5.90;;
13795;SDS011;40911;51.552;9.874;2024-02-04T09:20:26;7.72;;;5.97;;
13795;SDS011;40911;51.552;9.874;2024-02-04T09:22:47;9.23;;;6.05;;
13795;SDS011;40911;51.552;9.874;2024-02-04T09:25:09;7.57;;;5.55;;
13795;SDS011;40911;51.552;9.874;2024-02-04T09:27:31;7.40;;;6.22;;
13795;SDS011;40911;51.552;9.874;2024-02-04T09:32:15;6.93;;;5.22;;
13795;SDS011;40911;51.552;9.874;2024-02-04T09:36:59;7.35;;;5.90;;
13795;SDS011;40911;51.552;9.874;2024-02-04T09:41:43;9.20;;;5.70;;
13795;SDS011;40911;51.552;9.874;2024-02-04T09:44:05;8.88;;;6.28;;
13795;SDS011;40911;51.552;9.874;2024-02-04T09:46:29;8.00;;;6.70;;
13795;SDS011;40911;51.552;9.874;2024-02-04T09:48:51;8.90;;;7.00;;
13795;SDS011;40911;51.552;9.874;2024-02-04T09:51:14;10.50;;;7.50;;
13795;SDS011;40911;51.552;9.874;2024-02-04T09:55:57;9.43;;;7.13;;
13795;SDS011;40911;51.552;9.874;2024-02-04T09:58:20;8.40;;;6.55;;
13795;SDS011;40911;51.552;9.874;2024-02-04T10:00:42;9.02;;;7.18;;
13795;SDS011;40911;51.552;9.874;2024-02-04T10:03:07;10.75;;;7.70;;
13795;SDS011;40911;51.552;9.874;2024-02-04T10:05:29;9.93;;;7.88;;
13795;SDS011;40911;51.552;9.874;2024-02-04T10:07:51;8.43;;;6.88;;
13795;SDS011;40911;51.552;9.874;2024-02-04T10:12:34;7.72;;;5.28;;
13795;SDS011;40911;51.552;9.874;2024-02-04T10:14:58;5.80;;;4.88;;
13795;SDS011;40911;51.552;9.874;2024-02-04T10:19:43;7.20;;;5.05;;
13795;SDS011;40911;51.552;9.874;2024-02-04T10:22:05;5.35;;;4.47;;
13795;SDS011;40911;51.552;9.874;2024-02-04T10:24:27;6.15;;;4.30;;
13795;SDS011;40911;51.552;9.874;2024-02-04T10:26:48;5.65;;;4.32;;
13795;SDS011;40911;51.552;9.874;2024-02-04T10:29:10;6.82;;;4.60;;
13795;SDS011;40911;51.552;9.874;2024-02-04T10:31:33;4.55;;;3.42;;
13795;SDS011;40911;51.552;9.874;2024-02-04T10:33:54;8.85;;;4.40;;
13795;SDS011;40911;51.552;9.874;2024-02-04T10:36:18;6.70;;;4.20;;
13795;SDS011;40911;51.552;9.874;2024-02-04T10:38:39;3.95;;;3.65;;
13795;SDS011;40911;51.552;9.874;2024-02-04T10:41:01;6.40;;;5.43;;
13795;SDS011;40911;51.552;9.874;2024-02-04T10:43:23;7.45;;;3.90;;
13795;SDS011;40911;51.552;9.874;2024-02-04T10:45:49;5.05;;;3.90;;
13795;SDS011;40911;51.552;9.874;2024-02-04T10:48:18;8.45;;;3.75;;
13795;SDS011;40911;51.552;9.874;2024-02-04T10:50:41;5.05;;;4.07;;
13795;SDS011;40911;51.552;9.874;2024-02-04T10:53:07;4.82;;;3.80;;
13795;SDS011;40911;51.552;9.874;2024-02-04T10:55:33;4.40;;;3.80;;
13795;SDS011;40911;51.552;9.874;2024-02-04T10:58:01;5.07;;;3.80;;
13795;SDS011;40911;51.552;9.874;2024-02-04T11:00:24;5.78;;;4.43;;
13795;SDS011;40911;51.552;9.874;2024-02-04T11:02:46;7.95;;;4.40;;
13795;SDS011;40911;51.552;9.874;2024-02-04T11:05:09;5.05;;;4.15;;
13795;SDS011;40911;51.552;9.874;2024-02-04T11:09:55;7.13;;;4.60;;
13795;SDS011;40911;51.552;9.874;2024-02-04T11:12:18;6.47;;;4.40;;
13795;SDS011;40911;51.552;9.874;2024-02-04T11:14:42;6.45;;;4.68;;
13795;SDS011;40911;51.552;9.874;2024-02-04T11:17:17;5.15;;;4.50;;
13795;SDS011;40911;51.552;9.874;2024-02-04T11:20:12;5.28;;;4.28;;
13795;SDS011;40911;51.552;9.874;2024-02-04T11:23:08;8.55;;;4.57;;
13795;SDS011;40911;51.552;9.874;2024-02-04T11:25:50;5.90;;;4.85;;
13795;SDS011;40911;51.552;9.874;2024-02-04T11:28:15;7.18;;;4.60;;
13795;SDS011;40911;51.552;9.874;2024-02-04T11:30:39;6.05;;;4.65;;
13795;SDS011;40911;51.552;9.874;2024-02-04T11:35:22;8.70;;;5.25;;
13795;SDS011;40911;51.552;9.874;2024-02-04T11:37:44;9.50;;;5.70;;
13795;SDS011;40911;51.552;9.874;2024-02-04T11:40:07;7.45;;;5.30;;
13795;SDS011;40911;51.552;9.874;2024-02-04T11:42:36;5.70;;;4.30;;
13795;SDS011;40911;51.552;9.874;2024-02-04T11:45:07;5.63;;;4.63;;
13795;SDS011;40911;51.552;9.874;2024-02-04T11:47:29;5.47;;;4.10;;
13795;SDS011;40911;51.552;9.874;2024-02-04T11:49:54;7.15;;;4.53;;
13795;SDS011;40911;51.552;9.874;2024-02-04T11:52:18;5.95;;;4.40;;
13795;SDS011;40911;51.552;9.874;2024-02-04T11:54:40;6.15;;;4.43;;
13795;SDS011;40911;51.552;9.874;2024-02-04T11:57:02;5.57;;;4.43;;
13795;SDS011;40911;51.552;9.874;2024-02-04T12:01:47;5.45;;;3.97;;
13795;SDS011;40911;51.552;9.874;2024-02-04T12:06:31;5.35;;;4.07;;
13795;SDS011;40911;51.552;9.874;2024-02-04T12:08:53;3.55;;;2.92;;
13795;SDS011;40911;51.552;9.874;2024-02-04T12:11:15;6.70;;;3.95;;
13795;SDS011;40911;51.552;9.874;2024-02-04T12:13:37;4.65;;;3.28;;
13795;SDS011;40911;51.552;9.874;2024-02-04T12:16:00;8.63;;;3.42;;
13795;SDS011;40911;51.552;9.874;2024-02-04T12:18:22;4.82;;;3.70;;
13795;SDS011;40911;51.552;9.874;2024-02-04T12:20:44;4.25;;;3.72;;
13795;SDS011;40911;51.552;9.874;2024-02-04T12:23:06;4.82;;;3.50;;
13795;SDS011;40911;51.552;9.874;2024-02-04T12:25:28;4.13;;;3.30;;
13795;SDS011;40911;51.552;9.874;2024-02-04T12:27:51;4.03;;;3.30;;
13795;SDS011;40911;51.552;9.874;2024-02-04T12:30:12;8.43;;;6.60;;
13795;SDS011;40911;51.552;9.874;2024-02-04T12:32:35;3.65;;;3.35;;
13795;SDS011;40911;51.552;9.874;2024-02-04T12:34:56;5.53;;;3.38;;
13795;SDS011;40911;51.552;9.874;2024-02-04T12:37:18;5.53;;;3.67;;
13795;SDS011;40911;51.552;9.874;2024-02-04T12:39:39;3.58;;;3.28;;
13795;SDS011;40911;51.552;9.874;2024-02-04T12:42:01;5.20;;;3.47;;
13795;SDS011;40911;51.552;9.874;2024-02-04T12:44:23;3.60;;;3.17;;
13795;SDS011;40911;51.552;9.874;2024-02-04T12:46:45;3.10;;;2.90;;
13795;SDS011;40911;51.552;9.874;2024-02-04T12:49:08;4.40;;;3.33;;
13795;SDS011;40911;51.552;9.874;2024-02-04T12:51:29;3.72;;;3.22;;
13795;SDS011;40911;51.552;9.874;2024-02-04T12:54:05;3.55;;;3.20;;
13795;SDS011;40911;51.552;9.874;2024-02-04T12:56:29;3.75;;;3.17;;
13795;SDS011;40911;51.552;9.874;2024-02-04T12:59:01;4.05;;;3.47;;
13795;SDS011;40911;51.552;9.874;2024-02-04T13:01:24;3.45;;;3.15;;
13795;SDS011;40911;51.552;9.874;2024-02-04T13:03:45;4.38;;;3.63;;
13795;SDS011;40911;51.552;9.874;2024-02-04T13:06:11;4.97;;;3.88;;
13795;SDS011;40911;51.552;9.874;2024-02-04T13:08:34;4.97;;;3.60;;
13795;SDS011;40911;51.552;9.874;2024-02-04T13:10:56;4.78;;;3.88;;
13795;SDS011;40911;51.552;9.874;2024-02-04T13:13:18;7.82;;;4.75;;
13795;SDS011;40911;51.552;9.874;2024-02-04T13:15:40;7.28;;;3.97;;
13795;SDS011;40911;51.552;9.874;2024-02-04T13:18:04;5.13;;;4.03;;
13795;SDS011;40911;51.552;9.874;2024-02-04T13:20:26;9.85;;;4.45;;
13795;SDS011;40911;51.552;9.874;2024-02-04T13:22:49;4.50;;;3.80;;
13795;SDS011;40911;51.552;9.874;2024-02-04T13:25:11;13.88;;;6.20;;
13795;SDS011;40911;51.552;9.874;2024-02-04T13:29:54;16.98;;;6.88;;
13795;SDS011;40911;51.552;9.874;2024-02-04T13:32:15;20.42;;;8.40;;
13795;SDS011;40911;51.552;9.874;2024-02-04T13:34:37;8.38;;;4.75;;
13795;SDS011;40911;51.552;9.874;2024-02-04T13:36:58;13.30;;;5.70;;
13795;SDS011;40911;51.552;9.874;2024-02-04T13:39:22;15.18;;;6.68;;
13795;SDS011;40911;51.552;9.874;2024-02-04T13:41:43;4.53;;;3.53;;
13795;SDS011;40911;51.552;9.874;2024-02-04T13:44:05;20.60;;;7.13;;
13795;SDS011;40911;51.552;9.874;2024-02-04T13:46:27;9.55;;;4.78;;
13795;SDS011;40911;51.552;9.874;2024-02-04T13:48:48;18.58;;;6.43;;
13795;SDS011;40911;51.552;9.874;2024-02-04T13:51:10;5.85;;;4.18;;
13795;SDS011;40911;51.552;9.874;2024-02-04T13:53:32;7.68;;;4.53;;
13795;SDS011;40911;51.552;9.874;2024-02-04T13:55:55;4.85;;;3.38;;
13795;SDS011;40911;51.552;9.874;2024-02-04T13:58:17;7.22;;;5.07;;
13795;SDS011;40911;51.552;9.874;2024-02-04T14:00:39;3.20;;;2.90;;
13795;SDS011;40911;51.552;9.874;2024-02-04T14:03:00;3.55;;;3.25;;
13795;SDS011;40911;51.552;9.874;2024-02-04T14:05:22;3.67;;;3.08;;
13795;SDS011;40911;51.552;9.874;2024-02-04T14:07:45;3.60;;;3.30;;
13795;SDS011;40911;51.552;9.874;2024-02-04T14:10:07;3.60;;;3.30;;
13795;SDS011;40911;51.552;9.874;2024-02-04T14:12:33;3.03;;;2.67;;
13795;SDS011;40911;51.552;9.874;2024-02-04T14:14:54;2.80;;;2.60;;
13795;SDS011;40911;51.552;9.874;2024-02-04T14:17:16;3.00;;;2.80;;
13795;SDS011;40911;51.552;9.874;2024-02-04T14:21:59;2.97;;;2.55;;
13795;SDS011;40911;51.552;9.874;2024-02-04T14:24:21;2.83;;;2.60;;
13795;SDS011;40911;51.552;9.874;2024-02-04T14:26:43;3.47;;;2.58;;
13795;SDS011;40911;51.552;9.874;2024-02-04T14:31:27;2.65;;;2.45;;
13795;SDS011;40911;51.552;9.874;2024-02-04T14:33:49;3.40;;;2.53;;
13795;SDS011;40911;51.552;9.874;2024-02-04T14:38:32;2.50;;;2.38;;
13795;SDS011;40911;51.552;9.874;2024-02-04T14:40:53;2.55;;;2.38;;
13795;SDS011;40911;51.552;9.874;2024-02-04T14:43:15;2.83;;;2.33;;
13795;SDS011;40911;51.552;9.874;2024-02-04T14:45:39;2.42;;;2.20;;
13795;SDS011;40911;51.552;9.874;2024-02-04T14:48:02;1.90;;;1.80;;
13795;SDS011;40911;51.552;9.874;2024-02-04T14:50:23;2.35;;;2.15;;
13795;SDS011;40911;51.552;9.874;2024-02-04T14:52:45;2.20;;;2.10;;
13795;SDS011;40911;51.552;9.874;2024-02-04T14:57:29;15.02;;;8.38;;
13795;SDS011;40911;51.552;9.874;2024-02-04T14:59:51;2.83;;;2.63;;
13795;SDS011;40911;51.552;9.874;2024-02-04T15:02:14;2.75;;;2.55;;
13795;SDS011;40911;51.552;9.874;2024-02-04T15:04:36;2.63;;;2.25;;
13795;SDS011;40911;51.552;9.874;2024-02-04T15:06:57;4.28;;;3.58;;
13795;SDS011;40911;51.552;9.874;2024-02-04T15:09:19;3.53;;;2.70;;
13795;SDS011;40911;51.552;9.874;2024-02-04T15:11:40;2.40;;;2.20;;
13795;SDS011;40911;51.552;9.874;2024-02-04T15:14:02;2.10;;;2.00;;
13795;SDS011;40911;51.552;9.874;2024-02-04T15:16:25;2.00;;;1.90;;
13795;SDS011;40911;51.552;9.874;2024-02-04T15:18:48;2.10;;;2.00;;
13795;SDS011;40911;51.552;9.874;2024-02-04T15:21:11;1.85;;;1.75;;
13795;SDS011;40911;51.552;9.874;2024-02-04T15:23:33;2.35;;;2.20;;
13795;SDS011;40911;51.552;9.874;2024-02-04T15:25:55;2.33;;;2.00;;
13795;SDS011;40911;51.552;9.874;2024-02-04T15:28:18;1.98;;;1.88;;
13795;SDS011;40911;51.552;9.874;2024-02-04T15:30:40;3.60;;;1.83;;
13795;SDS011;40911;51.552;9.874;2024-02-04T15:33:02;1.45;;;1.45;;
13795;SDS011;40911;51.552;9.874;2024-02-04T15:35:26;2.28;;;1.70;;
13795;SDS011;40911;51.552;9.874;2024-02-04T15:37:48;1.58;;;1.48;;
13795;SDS011;40911;51.552;9.874;2024-02-04T15:40:10;1.60;;;1.60;;
13795;SDS011;40911;51.552;9.874;2024-02-04T15:42:32;1.60;;;1.50;;
13795;SDS011;40911;51.552;9.874;2024-02-04T15:47:15;1.67;;;1.60;;
13795;SDS011;40911;51.552;9.874;2024-02-04T15:49:37;1.58;;;1.50;;
13795;SDS011;40911;51.552;9.874;2024-02-04T15:52:02;1.50;;;1.50;;
13795;SDS011;40911;51.552;9.874;2024-02-04T15:54:24;1.73;;;1.70;;
13795;SDS011;40911;51.552;9.874;2024-02-04T15:56:49;1.80;;;1.70;;
13795;SDS011;40911;51.552;9.874;2024-02-04T15:59:16;1.70;;;1.60;;
13795;SDS011;40911;51.552;9.874;2024-02-04T16:01:42;2.70;;;2.15;;
13795;SDS011;40911;51.552;9.874;2024-02-04T16:04:05;9.02;;;5.80;;
13795;SDS011;40911;51.552;9.874;2024-02-04T16:06:27;2.53;;;2.33;;
13795;SDS011;40911;51.552;9.874;2024-02-04T16:08:51;2.10;;;2.00;;
13795;SDS011;40911;51.552;9.874;2024-02-04T16:11:14;1.60;;;1.50;;
13795;SDS011;40911;51.552;9.874;2024-02-04T16:13:37;1.70;;;1.60;;
13795;SDS011;40911;51.552;9.874;2024-02-04T16:15:59;1.83;;;1.73;;
13795;SDS011;40911;51.552;9.874;2024-02-04T16:18:23;1.58;;;1.50;;
13795;SDS011;40911;51.552;9.874;2024-02-04T16:20:45;1.70;;;1.60;;
13795;SDS011;40911;51.552;9.874;2024-02-04T16:23:07;1.92;;;1.83;;
13795;SDS011;40911;51.552;9.874;2024-02-04T16:25:30;2.40;;;2.30;;
13795;SDS011;40911;51.552;9.874;2024-02-04T16:27:53;2.00;;;1.90;;
13795;SDS011;40911;51.552;9.874;2024-02-04T16:32:37;2.10;;;2.00;;
13795;SDS011;40911;51.552;9.874;2024-02-04T16:34:59;2.10;;;2.00;;
13795;SDS011;40911;51.552;9.874;2024-02-04T16:39:41;2.70;;;2.50;;
13795;SDS011;40911;51.552;9.874;2024-02-04T16:42:05;2.65;;;2.50;;
13795;SDS011;40911;51.552;9.874;2024-02-04T16:44:28;2.83;;;2.38;;
13795;SDS011;40911;51.552;9.874;2024-02-04T16:46:50;2.90;;;2.70;;
13795;SDS011;40911;51.552;9.874;2024-02-04T16:49:12;3.00;;;2.70;;
13795;SDS011;40911;51.552;9.874;2024-02-04T16:51:37;2.65;;;2.45;;
13795;SDS011;40911;51.552;9.874;2024-02-04T16:53:58;2.95;;;2.75;;
13795;SDS011;40911;51.552;9.874;2024-02-04T16:56:20;2.97;;;2.78;;
13795;SDS011;40911;51.552;9.874;2024-02-04T16:58:44;3.67;;;3.30;;
13795;SDS011;40911;51.552;9.874;2024-02-04T17:01:06;4.18;;;3.15;;
13795;SDS011;40911;51.552;9.874;2024-02-04T17:03:28;4.10;;;3.75;;
13795;SDS011;40911;51.552;9.874;2024-02-04T17:05:50;3.83;;;3.42;;
13795;SDS011;40911;51.552;9.874;2024-02-04T17:08:12;6.20;;;4.18;;
13795;SDS011;40911;51.552;9.874;2024-02-04T17:10:34;5.57;;;4.13;;
13795;SDS011;40911;51.552;9.874;2024-02-04T17:12:57;4.60;;;3.63;;
13795;SDS011;40911;51.552;9.874;2024-02-04T17:15:21;4.68;;;3.00;;
13795;SDS011;40911;51.552;9.874;2024-02-04T17:17:43;4.05;;;3.05;;
13795;SDS011;40911;51.552;9.874;2024-02-04T17:20:08;3.42;;;3.10;;
13795;SDS011;40911;51.552;9.874;2024-02-04T17:22:33;4.07;;;3.67;;
13795;SDS011;40911;51.552;9.874;2024-02-04T17:24:56;3.55;;;3.15;;
13795;SDS011;40911;51.552;9.874;2024-02-04T17:27:23;3.30;;;3.00;;
13795;SDS011;40911;51.552;9.874;2024-02-04T17:29:45;3.80;;;3.33;;
13795;SDS011;40911;51.552;9.874;2024-02-04T17:32:12;3.40;;;3.10;;
13795;SDS011;40911;51.552;9.874;2024-02-04T17:34:35;4.13;;;3.47;;
13795;SDS011;40911;51.552;9.874;2024-02-04T17:36:57;4.10;;;3.53;;
13795;SDS011;40911;51.552;9.874;2024-02-04T17:39:19;4.47;;;3.50;;
13795;SDS011;40911;51.552;9.874;2024-02-04T17:41:41;4.90;;;3.47;;
13795;SDS011;40911;51.552;9.874;2024-02-04T17:46:24;4.97;;;4.13;;
13795;SDS011;40911;51.552;9.874;2024-02-04T17:51:09;4.35;;;3.20;;
13795;SDS011;40911;51.552;9.874;2024-02-04T17:53:30;3.97;;;3.67;;
13795;SDS011;40911;51.552;9.874;2024-02-04T17:55:52;4.30;;;3.90;;
13795;SDS011;40911;51.552;9.874;2024-02-04T18:00:35;5.13;;;3.85;;
13795;SDS011;40911;51.552;9.874;2024-02-04T18:02:57;4.55;;;3.42;;
13795;SDS011;40911;51.552;9.874;2024-02-04T18:05:21;4.10;;;3.70;;
13795;SDS011;40911;51.552;9.874;2024-02-04T18:07:43;4.88;;;3.70;;
13795;SDS011;40911;51.552;9.874;2024-02-04T18:10:05;3.90;;;3.47;;
13795;SDS011;40911;51.552;9.874;2024-02-04T18:12:27;4.07;;;3.67;;
13795;SDS011;40911;51.552;9.874;2024-02-04T18:14:53;4.90;;;3.40;;
13795;SDS011;40911;51.552;9.874;2024-02-04T18:17:15;3.25;;;3.05;;
13795;SDS011;40911;51.552;9.874;2024-02-04T18:19:38;3.53;;;3.22;;
13795;SDS011;40911;51.552;9.874;2024-02-04T18:22:03;3.53;;;3.22;;
13795;SDS011;40911;51.552;9.874;2024-02-04T18:24:25;3.60;;;3.30;;
13795;SDS011;40911;51.552;9.874;2024-02-04T18:26:47;4.72;;;4.32;;
13795;SDS011;40911;51.552;9.874;2024-02-04T18:29:09;3.95;;;3.58;;
13795;SDS011;40911;51.552;9.874;2024-02-04T18:31:31;3.85;;;3.55;;
13795;SDS011;40911;51.552;9.874;2024-02-04T18:33:53;3.50;;;3.30;;
13795;SDS011;40911;51.552;9.874;2024-02-04T18:36:15;3.85;;;3.55;;
13795;SDS011;40911;51.552;9.874;2024-02-04T18:38:38;5.13;;;4.63;;
13795;SDS011;40911;51.552;9.874;2024-02-04T18:41:01;3.58;;;3.28;;
13795;SDS011;40911;51.552;9.874;2024-02-04T18:43:24;3.90;;;3.60;;
13795;SDS011;40911;51.552;9.874;2024-02-04T18:45:45;3.38;;;3.10;;
13795;SDS011;40911;51.552;9.874;2024-02-04T18:48:10;3.80;;;3.50;;
13795;SDS011;40911;51.552;9.874;2024-02-04T18:50:31;3.70;;;3.40;;
13795;SDS011;40911;51.552;9.874;2024-02-04T18:52:53;3.75;;;3.45;;
13795;SDS011;40911;51.552;9.874;2024-02-04T18:55:16;4.32;;;3.92;;
13795;SDS011;40911;51.552;9.874;2024-02-04T18:57:37;3.92;;;3.47;;
13795;SDS011;40911;51.552;9.874;2024-02-04T19:00:01;3.17;;;2.88;;
13795;SDS011;40911;51.552;9.874;2024-02-04T19:02:22;4.65;;;3.35;;
13795;SDS011;40911;51.552;9.874;2024-02-04T19:04:44;3.70;;;3.40;;
13795;SDS011;40911;51.552;9.874;2024-02-04T19:07:06;4.22;;;3.83;;
13795;SDS011;40911;51.552;9.874;2024-02-04T19:09:27;3.90;;;3.45;;
13795;SDS011;40911;51.552;9.874;2024-02-04T19:11:50;6.75;;;5.97;;
13795;SDS011;40911;51.552;9.874;2024-02-04T19:14:12;4.70;;;4.18;;
13795;SDS011;40911;51.552;9.874;2024-02-04T19:16:33;5.00;;;4.38;;
13795;SDS011;40911;51.552;9.874;2024-02-04T19:18:55;3.92;;;3.08;;
13795;SDS011;40911;51.552;9.874;2024-02-04T19:21:17;3.53;;;3.17;;
13795;SDS011;40911;51.552;9.874;2024-02-04T19:23:38;4.63;;;3.65;;
13795;SDS011;40911;51.552;9.874;2024-02-04T19:26:00;4.03;;;3.00;;
13795;SDS011;40911;51.552;9.874;2024-02-04T19:28:23;3.70;;;3.08;;
13795;SDS011;40911;51.552;9.874;2024-02-04T19:30:44;3.38;;;3.08;;
13795;SDS011;40911;51.552;9.874;2024-02-04T19:35:27;4.00;;;3.60;;
13795;SDS011;40911;51.552;9.874;2024-02-04T19:37:50;3.30;;;2.90;;
13795;SDS011;40911;51.552;9.874;2024-02-04T19:40:12;3.20;;;2.90;;
13795;SDS011;40911;51.552;9.874;2024-02-04T19:42:34;3.70;;;3.40;;
13795;SDS011;40911;51.552;9.874;2024-02-04T19:44:57;3.13;;;2.85;;
13795;SDS011;40911;51.552;9.874;2024-02-04T19:47:19;3.08;;;2.60;;
13795;SDS011;40911;51.552;9.874;2024-02-04T19:49:41;2.95;;;2.60;;
13795;SDS011;40911;51.552;9.874;2024-02-04T19:52:03;2.60;;;2.40;;
13795;SDS011;40911;51.552;9.874;2024-02-04T19:54:24;2.60;;;2.40;;
13795;SDS011;40911;51.552;9.874;2024-02-04T19:56:46;3.03;;;2.70;;
13795;SDS011;40911;51.552;9.874;2024-02-04T19:59:08;3.58;;;2.60;;
13795;SDS011;40911;51.552;9.874;2024-02-04T20:01:32;2.67;;;2.47;;
13795;SDS011;40911;51.552;9.874;2024-02-04T20:03:54;2.50;;;2.30;;
13795;SDS011;40911;51.552;9.874;2024-02-04T20:06:15;2.60;;;2.40;;
13795;SDS011;40911;51.552;9.874;2024-02-04T20:08:37;2.50;;;2.33;;
13795;SDS011;40911;51.552;9.874;2024-02-04T20:10:59;2.78;;;2.58;;
13795;SDS011;40911;51.552;9.874;2024-02-04T20:13:21;2.35;;;2.17;;
13795;SDS011;40911;51.552;9.874;2024-02-04T20:15:42;2.85;;;2.28;;
13795;SDS011;40911;51.552;9.874;2024-02-04T20:18:06;2.55;;;2.35;;
13795;SDS011;40911;51.552;9.874;2024-02-04T20:20:27;2.83;;;2.50;;
13795;SDS011;40911;51.552;9.874;2024-02-04T20:22:50;2.33;;;2.13;;
13795;SDS011;40911;51.552;9.874;2024-02-04T20:25:14;2.25;;;2.00;;
13795;SDS011;40911;51.552;9.874;2024-02-04T20:27:35;2.20;;;2.08;;
13795;SDS011;40911;51.552;9.874;2024-02-04T20:29:57;2.92;;;2.47;;
13795;SDS011;40911;51.552;9.874;2024-02-04T20:32:19;2.30;;;2.10;;
13795;SDS011;40911;51.552;9.874;2024-02-04T20:34:42;2.45;;;2.28;;
13795;SDS011;40911;51.552;9.874;2024-02-04T20:37:03;1.90;;;1.80;;
13795;SDS011;40911;51.552;9.874;2024-02-04T20:39:25;1.90;;;1.80;;
13795;SDS011;40911;51.552;9.874;2024-02-04T20:41:48;2.35;;;2.03;;
13795;SDS011;40911;51.552;9.874;2024-02-04T20:44:13;1.98;;;1.88;;
13795;SDS011;40911;51.552;9.874;2024-02-04T20:46:35;1.95;;;1.85;;
13795;SDS011;40911;51.552;9.874;2024-02-04T20:49:00;1.80;;;1.70;;
13795;SDS011;40911;51.552;9.874;2024-02-04T20:51:23;3.63;;;1.92;;
13795;SDS011;40911;51.552;9.874;2024-02-04T20:53:46;2.00;;;1.90;;
13795;SDS011;40911;51.552;9.874;2024-02-04T20:56:08;1.63;;;1.60;;
13795;SDS011;40911;51.552;9.874;2024-02-04T20:58:30;2.22;;;1.80;;